Freedom — WDD5825 — position and weather

sailwx.info

Track history (hours):
 
Tides and Currents Weather Stations Pressure Air Temp Water Temp Dewpoint Dewpoint Depression Visibility Wind Speed Wind Dir Waves Ship Positions

Freedom

Owner: REINAUER TRANSPORTATION CO.,LLC., STATEN ISLAND, NY. More information available from US FCC via Universal Licensing System and Coast Guard Vessel Documentation Center.

Last reported at 2018-Jan-21 08:08 UTC. Time now 2018-Jan-21 16:37 UTC.
Position N 42°23' W 071°03'.

Length 28 m; draft 4.3 m.

Type: Tug. MMSI: 367164250.

Date/timePositionNaut miles runAvg speedWind from/ knotsBaromVisibWave heightAir tempDewpointWater temp
2018-Jan-21 08:08N 42°23' W 071°03'0 0.0
2018-Jan-21 08:00N 42°23' W 071°03'0 0.0
2018-Jan-21 07:30N 42°23' W 071°03'0 0.0
2018-Jan-21 07:00N 42°23' W 071°03'0 0.0
2018-Jan-21 06:30N 42°23' W 071°03'0 0.0
2018-Jan-21 06:00N 42°23' W 071°03'0 0.0
2018-Jan-21 05:30N 42°23' W 071°03'0 0.0
2018-Jan-20 21:02N 42°23' W 071°03'0 0.0
2018-Jan-20 21:00N 42°23' W 071°03'2 2.7
2018-Jan-20 20:24N 42°24' W 071°01'0 0.9
2018-Jan-20 20:00N 42°24' W 071°01'1 2.9
2018-Jan-20 19:30N 42°23' W 071°03'1 0.6
2018-Jan-20 18:32N 42°23' W 071°04'0 0.2
2018-Jan-20 18:30N 42°23' W 071°04'1 2.2
2018-Jan-20 17:58N 42°22' W 071°03'0 0.1
2018-Jan-20 17:30N 42°22' W 071°03'1 0.2
2018-Jan-20 13:04N 42°23' W 071°03'0 0.6
2018-Jan-20 13:00N 42°23' W 071°03'1 2.1
2018-Jan-20 12:30N 42°23' W 071°01'1 1.5
2018-Jan-20 11:59N 42°24' W 071°01'2 3.6
2018-Jan-20 11:30N 42°23' W 071°03'0 0.0
2018-Jan-19 23:20N 42°23' W 071°03'0 0.0
2018-Jan-19 18:42N 42°23' W 071°03'1 5.8
2018-Jan-19 18:29N 42°23' W 071°01'0 0.1
2018-Jan-19 17:43N 42°23' W 071°01'1 2.7
2018-Jan-19 17:20N 42°23' W 071°02'0 0.9
2018-Jan-19 16:59N 42°23' W 071°03'1 0.8
2018-Jan-19 15:52N 42°23' W 071°04'1 1.6
2018-Jan-19 15:30N 42°23' W 071°03'0 0.0
2018-Jan-18 21:38N 42°23' W 071°03'1 4.5
2018-Jan-18 21:29N 42°23' W 071°02'1 1.8
2018-Jan-18 20:59N 42°24' W 071°01'2 3.1
2018-Jan-18 20:30N 42°23' W 071°03'1 2.5
2018-Jan-18 19:59N 42°22' W 071°03'1 0.4
2018-Jan-18 17:21N 42°23' W 071°03'2 6.8
2018-Jan-18 17:00N 42°21' W 071°01'1 2.1
2018-Jan-18 16:22N 42°20' W 070°60'1 1.3
2018-Jan-18 15:53N 42°20' W 070°59'2 4.2
2018-Jan-18 15:27N 42°21' W 071°01'0 0.4
2018-Jan-18 14:59N 42°21' W 071°01'3 5.3
2018-Jan-18 14:29N 42°23' W 071°01'0 0.6
2018-Jan-18 13:54N 42°23' W 071°01'1 3.3
2018-Jan-18 13:30N 42°23' W 071°03'1 2.0
2018-Jan-18 12:59N 42°22' W 071°03'1 0.1
2018-Jan-18 06:48N 42°23' W 071°03'0 0.0
2018-Jan-18 06:30N 42°23' W 071°03'0 0.0
2018-Jan-18 06:00N 42°23' W 071°03'0 0.0
2018-Jan-18 05:30N 42°23' W 071°03'0 0.0
2018-Jan-18 05:00N 42°23' W 071°03'0 0.0
2018-Jan-18 04:18N 42°23' W 071°03'0 0.0
2018-Jan-18 03:51N 42°23' W 071°03'  
2018-Jan-12 14:52N 42°23' W 071°03'0 0.0
2018-Jan-12 14:13N 42°23' W 071°03'0 1.3
2018-Jan-12 13:58N 42°23' W 071°02'1 1.0
2018-Jan-12 12:42N 42°24' W 071°01'1 3.4
2018-Jan-12 12:20N 42°23' W 071°02'0 0.9
2018-Jan-12 12:00N 42°23' W 071°03'1 1.3
2018-Jan-12 11:30N 42°22' W 071°03'2 2.2
2018-Jan-12 10:49N 42°23' W 071°01'0 1.1
2018-Jan-12 10:29N 42°24' W 071°01'1 2.3
2018-Jan-12 10:00N 42°23' W 071°02'1 2.1
2018-Jan-12 09:25N 42°24' W 071°01'0 0.6
2018-Jan-12 08:59N 42°24' W 071°01'2 3.7
2018-Jan-12 08:31N 42°23' W 071°03'0 0.0
2018-Jan-12 07:59N 42°23' W 071°03'0 0.0
2018-Jan-12 07:28N 42°23' W 071°03'0 0.0
2018-Jan-12 07:00N 42°23' W 071°03'1 0.8
2018-Jan-12 05:57N 42°23' W 071°02'1 0.2
2018-Jan-12 01:29N 42°23' W 071°03'2 2.7
2018-Jan-12 00:51N 42°24' W 071°01'1 1.6
2018-Jan-12 00:30N 42°23' W 071°01'1 2.7
2018-Jan-11 23:57N 42°23' W 071°03'1 2.8
2018-Jan-11 23:30N 42°23' W 071°01'1 1.2
2018-Jan-11 23:00N 42°24' W 071°01'1 2.3
2018-Jan-11 22:28N 42°23' W 071°02'1 1.4
2018-Jan-11 22:00N 42°23' W 071°02'0 0.2
2018-Jan-11 21:28N 42°23' W 071°01'1 1.5
2018-Jan-11 20:59N 42°24' W 071°01'0 0.4
2018-Jan-11 20:25N 42°24' W 071°01'1 3.1
2018-Jan-11 20:00N 42°23' W 071°03'1 0.7
2018-Jan-11 18:47N 42°23' W 071°01'1 0.6
2018-Jan-11 17:27N 42°23' W 071°03'1 2.4
2018-Jan-11 17:00N 42°23' W 071°04'0 0.2
2018-Jan-11 16:30N 42°23' W 071°04'2 3.1
2018-Jan-11 15:48N 42°21' W 071°02'2 5.1
2018-Jan-11 15:30N 42°23' W 071°03'4 5.3
2018-Jan-11 14:49N 42°20' W 070°59'0 0.6
2018-Jan-11 14:30N 42°20' W 070°60'3 6.8
2018-Jan-11 14:00N 42°23' W 071°03'1 2.0
2018-Jan-11 13:30N 42°23' W 071°04'0 0.6
2018-Jan-11 13:00N 42°23' W 071°03'1 2.0
2018-Jan-11 12:29N 42°22' W 071°03'1 1.7
2018-Jan-11 11:44N 42°23' W 071°02'1 3.1
2018-Jan-11 11:29N 42°24' W 071°01'0 0.3
2018-Jan-11 11:00N 42°23' W 071°01'2 3.0
2018-Jan-11 10:28N 42°22' W 071°03'0 0.2
2018-Jan-11 08:57N 42°23' W 071°03'0 0.0
2018-Jan-11 08:30N 42°23' W 071°03'  
Track history (hours):
 
Tides and Currents Weather Stations Pressure Air Temp Water Temp Dewpoint Dewpoint Depression Visibility Wind Speed Wind Dir Waves Ship Positions

Freedom

Owner: REINAUER TRANSPORTATION CO.,LLC., STATEN ISLAND, NY. More information available from US FCC via Universal Licensing System and Coast Guard Vessel Documentation Center.

Last reported at 2018-Jan-21 08:08 UTC. Time now 2018-Jan-21 16:37 UTC.
Position N 42°23' W 071°03'.

Length 28 m; draft 4.3 m.

Type: Tug. MMSI: 367164250.

Date/timePositionNaut miles runAvg speedWind from/ knotsBaromVisibWave heightAir tempDewpointWater temp
2018-Jan-21 08:08N 42°23' W 071°03'0 0.0
2018-Jan-21 08:00N 42°23' W 071°03'0 0.0
2018-Jan-21 07:30N 42°23' W 071°03'0 0.0
2018-Jan-21 07:00N 42°23' W 071°03'0 0.0
2018-Jan-21 06:30N 42°23' W 071°03'0 0.0
2018-Jan-21 06:00N 42°23' W 071°03'0 0.0
2018-Jan-21 05:30N 42°23' W 071°03'0 0.0
2018-Jan-20 21:02N 42°23' W 071°03'0 0.0
2018-Jan-20 21:00N 42°23' W 071°03'2 2.7
2018-Jan-20 20:24N 42°24' W 071°01'0 0.9
2018-Jan-20 20:00N 42°24' W 071°01'1 2.9
2018-Jan-20 19:30N 42°23' W 071°03'1 0.6
2018-Jan-20 18:32N 42°23' W 071°04'0 0.2
2018-Jan-20 18:30N 42°23' W 071°04'1 2.2
2018-Jan-20 17:58N 42°22' W 071°03'0 0.1
2018-Jan-20 17:30N 42°22' W 071°03'1 0.2
2018-Jan-20 13:04N 42°23' W 071°03'0 0.6
2018-Jan-20 13:00N 42°23' W 071°03'1 2.1
2018-Jan-20 12:30N 42°23' W 071°01'1 1.5
2018-Jan-20 11:59N 42°24' W 071°01'2 3.6
2018-Jan-20 11:30N 42°23' W 071°03'0 0.0
2018-Jan-19 23:20N 42°23' W 071°03'0 0.0
2018-Jan-19 18:42N 42°23' W 071°03'1 5.8
2018-Jan-19 18:29N 42°23' W 071°01'0 0.1
2018-Jan-19 17:43N 42°23' W 071°01'1 2.7
2018-Jan-19 17:20N 42°23' W 071°02'0 0.9
2018-Jan-19 16:59N 42°23' W 071°03'1 0.8
2018-Jan-19 15:52N 42°23' W 071°04'1 1.6
2018-Jan-19 15:30N 42°23' W 071°03'0 0.0
2018-Jan-18 21:38N 42°23' W 071°03'1 4.5
2018-Jan-18 21:29N 42°23' W 071°02'1 1.8
2018-Jan-18 20:59N 42°24' W 071°01'2 3.1
2018-Jan-18 20:30N 42°23' W 071°03'1 2.5
2018-Jan-18 19:59N 42°22' W 071°03'1 0.4
2018-Jan-18 17:21N 42°23' W 071°03'2 6.8
2018-Jan-18 17:00N 42°21' W 071°01'1 2.1
2018-Jan-18 16:22N 42°20' W 070°60'1 1.3
2018-Jan-18 15:53N 42°20' W 070°59'2 4.2
2018-Jan-18 15:27N 42°21' W 071°01'0 0.4
2018-Jan-18 14:59N 42°21' W 071°01'3 5.3
2018-Jan-18 14:29N 42°23' W 071°01'0 0.6
2018-Jan-18 13:54N 42°23' W 071°01'1 3.3
2018-Jan-18 13:30N 42°23' W 071°03'1 2.0
2018-Jan-18 12:59N 42°22' W 071°03'1 0.1
2018-Jan-18 06:48N 42°23' W 071°03'0 0.0
2018-Jan-18 06:30N 42°23' W 071°03'0 0.0
2018-Jan-18 06:00N 42°23' W 071°03'0 0.0
2018-Jan-18 05:30N 42°23' W 071°03'0 0.0
2018-Jan-18 05:00N 42°23' W 071°03'0 0.0
2018-Jan-18 04:18N 42°23' W 071°03'0 0.0
2018-Jan-18 03:51N 42°23' W 071°03'  
2018-Jan-12 14:52N 42°23' W 071°03'0 0.0
2018-Jan-12 14:13N 42°23' W 071°03'0 1.3
2018-Jan-12 13:58N 42°23' W 071°02'1 1.0
2018-Jan-12 12:42N 42°24' W 071°01'1 3.4
2018-Jan-12 12:20N 42°23' W 071°02'0 0.9
2018-Jan-12 12:00N 42°23' W 071°03'1 1.3
2018-Jan-12 11:30N 42°22' W 071°03'2 2.2
2018-Jan-12 10:49N 42°23' W 071°01'0 1.1
2018-Jan-12 10:29N 42°24' W 071°01'1 2.3
2018-Jan-12 10:00N 42°23' W 071°02'1 2.1
2018-Jan-12 09:25N 42°24' W 071°01'0 0.6
2018-Jan-12 08:59N 42°24' W 071°01'2 3.7
2018-Jan-12 08:31N 42°23' W 071°03'0 0.0
2018-Jan-12 07:59N 42°23' W 071°03'0 0.0
2018-Jan-12 07:28N 42°23' W 071°03'0 0.0
2018-Jan-12 07:00N 42°23' W 071°03'1 0.8
2018-Jan-12 05:57N 42°23' W 071°02'1 0.2
2018-Jan-12 01:29N 42°23' W 071°03'2 2.7
2018-Jan-12 00:51N 42°24' W 071°01'1 1.6
2018-Jan-12 00:30N 42°23' W 071°01'1 2.7
2018-Jan-11 23:57N 42°23' W 071°03'1 2.8
2018-Jan-11 23:30N 42°23' W 071°01'1 1.2
2018-Jan-11 23:00N 42°24' W 071°01'1 2.3
2018-Jan-11 22:28N 42°23' W 071°02'1 1.4
2018-Jan-11 22:00N 42°23' W 071°02'0 0.2
2018-Jan-11 21:28N 42°23' W 071°01'1 1.5
2018-Jan-11 20:59N 42°24' W 071°01'0 0.4
2018-Jan-11 20:25N 42°24' W 071°01'1 3.1
2018-Jan-11 20:00N 42°23' W 071°03'1 0.7
2018-Jan-11 18:47N 42°23' W 071°01'1 0.6
2018-Jan-11 17:27N 42°23' W 071°03'1 2.4
2018-Jan-11 17:00N 42°23' W 071°04'0 0.2
2018-Jan-11 16:30N 42°23' W 071°04'2 3.1
2018-Jan-11 15:48N 42°21' W 071°02'2 5.1
2018-Jan-11 15:30N 42°23' W 071°03'4 5.3
2018-Jan-11 14:49N 42°20' W 070°59'0 0.6
2018-Jan-11 14:30N 42°20' W 070°60'3 6.8
2018-Jan-11 14:00N 42°23' W 071°03'1 2.0
2018-Jan-11 13:30N 42°23' W 071°04'0 0.6
2018-Jan-11 13:00N 42°23' W 071°03'1 2.0
2018-Jan-11 12:29N 42°22' W 071°03'1 1.7
2018-Jan-11 11:44N 42°23' W 071°02'1 3.1
2018-Jan-11 11:29N 42°24' W 071°01'0 0.3
2018-Jan-11 11:00N 42°23' W 071°01'2 3.0
2018-Jan-11 10:28N 42°22' W 071°03'0 0.2
2018-Jan-11 08:57N 42°23' W 071°03'0 0.0
2018-Jan-11 08:30N 42°23' W 071°03'  

Dump ship's entire track history